createdAt,value
2017-11-18T08:03:49.898Z,23.80
2017-11-18T08:06:17.531Z,24.30
2017-11-18T08:08:45.241Z,23.70
2017-11-18T08:11:12.886Z,21.40
2017-11-18T08:13:40.701Z,24.23
2017-11-18T08:16:08.375Z,25.70
2017-11-18T08:18:36.029Z,24.70
2017-11-18T08:21:03.691Z,23.83
2017-11-18T08:23:31.329Z,23.17
2017-11-18T08:25:59.018Z,23.13
2017-11-18T08:28:26.699Z,23.83
2017-11-18T08:30:54.304Z,22.57
2017-11-18T08:33:21.930Z,23.47
2017-11-18T08:35:49.545Z,23.60
2017-11-18T08:38:17.204Z,25.10
2017-11-18T08:40:44.813Z,24.70
2017-11-18T08:43:12.419Z,25.70
2017-11-18T08:45:40.071Z,25.70
2017-11-18T08:48:07.874Z,24.33
2017-11-18T08:50:35.565Z,23.10
2017-11-18T08:53:03.376Z,25.47
2017-11-18T08:55:37.726Z,22.07
2017-11-18T08:58:05.642Z,23.23
2017-11-18T09:00:33.377Z,23.03
2017-11-18T09:03:01.023Z,24.50
2017-11-18T09:05:28.673Z,23.63
2017-11-18T09:07:56.313Z,22.97
2017-11-18T09:10:23.989Z,22.63
2017-11-18T09:12:51.642Z,25.00
2017-11-18T09:15:19.525Z,22.90
2017-11-18T09:17:47.151Z,24.27
2017-11-18T09:20:14.780Z,23.20
2017-11-18T16:28:47.902Z,10.27
2017-11-18T16:31:25.726Z,9.40
2017-11-18T16:35:06.125Z,9.10
2017-11-18T16:37:34.004Z,8.30
2017-11-18T16:40:06.119Z,7.63
2017-11-18T16:42:33.734Z,8.27
2017-11-18T16:45:01.393Z,8.63
2017-11-18T16:47:29.005Z,8.30
2017-11-18T16:49:56.663Z,9.33
2017-11-18T16:52:24.469Z,9.43
2017-11-18T16:54:52.144Z,8.33
2017-11-18T16:57:20.068Z,8.87
2017-11-18T16:59:47.731Z,8.43
2017-11-18T17:02:15.518Z,7.60
2017-11-18T17:04:43.474Z,8.03
2017-11-18T17:07:11.410Z,7.87
2017-11-18T17:09:39.255Z,7.43
2017-11-18T17:12:07.184Z,7.50
